Time;durP1;ratioP1;P1;durP2;ratioP2;P2;SDS_P1;SDS_P2;PMS_P1;PMS_P2;Temp;Humidity;BMP_temperature;BMP_pressure;BME280_temperature;BME280_humidity;BME280_pressure;Samples;Min_cycle;Max_cycle;Signal;HPM_P1;HPM_P2
2023/05/09 00:00:04;;;;;;;2.88;2.47;;;;;;;11.02;67.51;101288.16;5069123;28;20044;-79
2023/05/09 00:02:33;;;;;;;4.32;2.33;;;;;;;10.99;67.17;101292.50;5058196;28;20394;-83
2023/05/09 00:05:02;;;;;;;5.18;2.72;;;;;;;10.93;68.31;101290.78;5056454;28;20294;-79
2023/05/09 00:07:30;;;;;;;3.50;2.55;;;;;;;10.91;68.00;101292.50;5068098;28;20047;-79
2023/05/09 00:09:56;;;;;;;3.10;2.50;;;;;;;10.90;68.10;101290.78;5069530;28;20060;-80
2023/05/09 00:12:23;;;;;;;2.58;2.00;;;;;;;10.87;68.11;101286.41;5075467;28;20067;-81
2023/05/09 00:14:53;;;;;;;3.40;2.40;;;;;;;10.82;68.47;101287.28;5059015;28;20051;-79
2023/05/09 00:17:21;;;;;;;2.70;2.50;;;;;;;10.76;68.37;101289.00;5069347;28;20052;-79
2023/05/09 00:19:49;;;;;;;3.67;2.13;;;;;;;10.75;69.29;101284.66;5068647;28;20049;-80
2023/05/09 00:22:18;;;;;;;3.15;2.58;;;;;;;10.75;68.48;101283.78;5038516;28;20053;-83
2023/05/09 00:24:44;;;;;;;2.60;2.20;;;;;;;10.72;69.29;101278.56;5036253;28;20048;-79
2023/05/09 00:27:11;;;;;;;5.38;2.30;;;;;;;10.70;69.60;101275.03;5020007;28;20037;-79
2023/05/09 00:29:37;;;;;;;4.18;2.30;;;;;;;10.65;69.34;101269.81;5054225;28;20040;-81
2023/05/09 00:32:04;;;;;;;8.13;2.72;;;;;;;10.63;69.79;101270.69;5023383;28;20091;-80
2023/05/09 00:34:30;;;;;;;6.25;2.40;;;;;;;10.59;69.77;101256.72;5031628;28;20083;-79
2023/05/09 00:36:57;;;;;;;2.70;2.50;;;;;;;10.59;69.59;101256.72;5050696;28;20050;-79
2023/05/09 00:39:23;;;;;;;1.83;1.73;;;;;;;10.53;69.78;101260.22;5032659;28;20044;-79
2023/05/09 00:41:51;;;;;;;4.53;2.78;;;;;;;10.50;70.09;101254.09;5046966;28;20133;-80
2023/05/09 00:44:18;;;;;;;3.08;1.80;;;;;;;10.44;70.43;101257.56;5025096;28;20041;-81
2023/05/09 00:46:44;;;;;;;4.60;2.38;;;;;;;10.42;70.65;101257.56;5023488;28;20063;-78
2023/05/09 00:49:11;;;;;;;2.58;2.38;;;;;;;10.41;70.45;101252.34;5031589;28;20040;-80
2023/05/09 00:51:41;;;;;;;2.72;1.95;;;;;;;10.38;71.24;101258.44;5036607;28;20041;-78
2023/05/09 00:54:10;;;;;;;3.15;2.38;;;;;;;10.33;70.82;101259.28;5028659;28;20044;-77
2023/05/09 00:56:37;;;;;;;3.95;2.35;;;;;;;10.28;70.80;101259.25;5035099;28;20044;-78
2023/05/09 00:59:05;;;;;;;3.45;2.25;;;;;;;10.25;71.45;101257.50;5027330;28;20098;-79
2023/05/09 01:01:31;;;;;;;1.80;1.70;;;;;;;10.20;71.43;101247.91;5042269;28;20041;-79
2023/05/09 01:03:58;;;;;;;2.63;2.42;;;;;;;10.18;72.11;101245.31;5051503;28;20041;-79
2023/05/09 01:06:59;;;;;;;2.33;2.13;;;;;;;10.16;72.66;101243.56;5034296;28;20045;-79
2023/05/09 01:09:43;;;;;;;3.58;2.40;;;;;;;10.12;73.06;101234.81;5050162;28;20053;-81
2023/05/09 01:12:35;;;;;;;4.90;2.47;;;;;;;10.09;72.51;101229.59;5032086;28;20095;-80
2023/05/09 01:15:51;;;;;;;2.35;1.92;;;;;;;10.03;73.24;101226.94;5018659;28;20424;-80
2023/05/09 01:18:30;;;;;;;3.60;2.63;;;;;;;9.97;73.20;101222.56;4993841;28;20052;-77
2023/05/09 01:21:11;;;;;;;4.38;2.75;;;;;;;9.91;73.96;101217.31;5054767;28;20060;-79
2023/05/09 01:24:00;;;;;;;4.70;2.28;;;;;;;9.87;73.57;101215.56;5063269;28;20071;-79
2023/05/09 01:27:22;;;;;;;3.67;2.28;;;;;;;9.83;74.10;101208.56;5070242;28;20041;-79
2023/05/09 01:29:57;;;;;;;3.50;2.60;;;;;;;9.79;74.01;101204.19;5064938;28;20475;-77
2023/05/09 01:32:29;;;;;;;3.38;2.75;;;;;;;9.74;74.33;101209.44;5063683;28;20045;-77
2023/05/09 01:35:00;;;;;;;4.38;3.97;;;;;;;9.70;74.52;101205.94;5069639;28;20048;-79
2023/05/09 01:37:35;;;;;;;3.17;2.60;;;;;;;9.68;74.49;101207.66;5063508;28;20032;-79
2023/05/09 01:40:15;;;;;;;4.07;3.20;;;;;;;9.66;74.68;101201.56;5082069;28;20040;-83
2023/05/09 01:42:52;;;;;;;4.07;2.60;;;;;;;9.61;74.99;101200.66;5067173;28;20044;-82
2023/05/09 01:45:20;;;;;;;6.18;2.65;;;;;;;9.58;75.43;101203.25;5061847;28;20041;-78
2023/05/09 01:47:49;;;;;;;2.92;2.70;;;;;;;9.56;75.70;101194.53;5067737;28;20037;-80
2023/05/09 01:50:18;;;;;;;4.10;3.17;;;;;;;9.51;75.87;101194.50;5064398;28;20048;-77
2023/05/09 01:52:49;;;;;;;3.25;2.88;;;;;;;9.48;76.14;101191.00;5066242;28;20082;-84
2023/05/09 01:55:18;;;;;;;5.32;2.72;;;;;;;9.42;76.40;101187.50;5068676;28;20044;-79
2023/05/09 01:57:45;;;;;;;2.70;2.50;;;;;;;9.41;77.05;101196.22;5084222;28;20029;-87
2023/05/09 02:00:14;;;;;;;2.50;2.33;;;;;;;9.41;77.33;101188.38;5052991;28;20041;-79
2023/05/09 02:02:41;;;;;;;3.53;2.90;;;;;;;9.35;77.33;101190.97;5086459;28;20124;-77
2023/05/09 02:05:10;;;;;;;3.00;2.80;;;;;;;9.32;77.51;101198.81;5069572;28;20044;-77
2023/05/09 02:07:37;;;;;;;3.13;2.92;;;;;;;9.28;77.62;101189.19;5070489;28;20152;-79
2023/05/09 02:10:04;;;;;;;7.45;3.25;;;;;;;9.24;78.04;101192.66;5065908;28;20535;-78
2023/05/09 02:12:31;;;;;;;4.00;3.28;;;;;;;9.21;78.12;101193.50;5049320;28;20135;-79
2023/05/09 02:14:57;;;;;;;3.75;3.40;;;;;;;9.19;78.08;101183.91;5085380;28;20506;-81
2023/05/09 02:17:23;;;;;;;5.45;4.03;;;;;;;9.16;78.93;101176.94;5065396;28;20394;-86
2023/05/09 02:19:50;;;;;;;4.43;2.80;;;;;;;9.14;79.39;101173.44;5058351;28;20053;-85
2023/05/09 02:22:16;;;;;;;5.18;2.97;;;;;;;9.12;79.57;101179.53;5083419;28;20048;-80
2023/05/09 02:24:45;;;;;;;5.22;2.97;;;;;;;9.10;79.49;101180.38;5070070;28;20123;-82
2023/05/09 02:27:13;;;;;;;4.03;3.15;;;;;;;9.10;79.45;101179.53;5053008;28;20044;-81
2023/05/09 02:29:50;;;;;;;3.72;2.80;;;;;;;9.05;79.74;101176.03;5080051;28;20048;-78
2023/05/09 02:32:23;;;;;;;6.05;3.35;;;;;;;9.00;79.88;101169.91;5061165;28;20122;-78
2023/05/09 02:34:53;;;;;;;3.70;3.40;;;;;;;9.00;79.70;101183.81;5065070;28;20048;-78
2023/05/09 02:37:21;;;;;;;5.90;3.25;;;;;;;8.99;79.72;101187.28;5069969;28;20059;-79
2023/05/09 02:39:48;;;;;;;4.30;3.15;;;;;;;8.95;79.88;101182.91;5084596;28;20098;-80
2023/05/09 02:42:23;;;;;;;5.35;3.05;;;;;;;8.93;80.10;101187.25;5069083;28;20041;-80
2023/05/09 02:44:51;;;;;;;6.38;4.22;;;;;;;8.89;80.80;101178.53;5078926;28;20040;-85
2023/05/09 02:47:18;;;;;;;4.80;3.47;;;;;;;8.87;80.56;101185.47;5090258;28;20044;-80
2023/05/09 02:49:44;;;;;;;4.90;3.20;;;;;;;8.85;80.87;101181.09;5083580;28;20033;-80
2023/05/09 02:52:11;;;;;;;3.55;3.25;;;;;;;8.86;81.01;101170.66;5051214;28;20414;-77
2023/05/09 02:54:38;;;;;;;3.47;3.17;;;;;;;8.87;80.99;101167.19;5067739;28;20054;-83
2023/05/09 02:57:05;;;;;;;4.32;3.00;;;;;;;8.89;81.37;101168.09;5084092;28;20052;-81
2023/05/09 02:59:32;;;;;;;4.05;3.58;;;;;;;8.92;80.74;101170.72;5044601;28;20394;-79
2023/05/09 03:01:58;;;;;;;6.80;3.95;;;;;;;8.92;80.41;101168.09;5064031;28;20045;-79
2023/05/09 03:04:26;;;;;;;4.85;3.55;;;;;;;8.91;80.61;101162.88;5063161;28;20040;-78
2023/05/09 03:06:53;;;;;;;4.55;3.45;;;;;;;8.89;81.01;101164.59;5063943;28;20045;-80
2023/05/09 03:09:19;;;;;;;4.15;3.65;;;;;;;8.84;80.57;101161.97;5071106;28;20075;-79
2023/05/09 03:11:48;;;;;;;4.35;3.95;;;;;;;8.80;81.34;101152.38;5044820;28;20057;-80
2023/05/09 03:14:15;;;;;;;4.60;4.10;;;;;;;8.74;81.49;101161.00;5060619;28;20047;-83
2023/05/09 03:16:41;;;;;;;8.35;3.70;;;;;;;8.73;81.95;101164.47;5068473;28;20487;-78
2023/05/09 03:19:08;;;;;;;5.72;3.70;;;;;;;8.69;81.68;101159.25;5068402;28;20053;-81
2023/05/09 03:21:35;;;;;;;5.18;3.83;;;;;;;8.65;82.24;101158.34;5059445;28;20080;-79
2023/05/09 03:24:03;;;;;;;5.40;3.17;;;;;;;8.63;82.69;101161.81;5063127;28;20033;-79
2023/05/09 03:26:30;;;;;;;9.00;4.07;;;;;;;8.60;82.77;101157.44;5064113;28;20051;-79
2023/05/09 03:28:59;;;;;;;9.40;6.18;;;;;;;8.55;83.38;101154.81;5061109;28;20114;-82
2023/05/09 03:31:27;;;;;;;7.38;4.43;;;;;;;8.51;83.49;101158.22;5067303;28;20049;-80
2023/05/09 03:33:53;;;;;;;7.57;4.10;;;;;;;8.47;84.11;101148.63;5067850;28;20090;-83
2023/05/09 03:36:20;;;;;;;5.53;3.78;;;;;;;8.45;84.51;101145.13;5066104;28;20045;-81
2023/05/09 03:38:48;;;;;;;9.10;3.85;;;;;;;8.41;84.66;101146.84;5061781;28;20044;-79
2023/05/09 03:41:17;;;;;;;11.48;4.78;;;;;;;8.42;85.41;101150.31;5066095;28;20059;-86
2023/05/09 03:43:44;;;;;;;5.20;4.10;;;;;;;8.39;85.59;101148.53;5063876;28;20094;-79
2023/05/09 03:46:10;;;;;;;5.00;4.25;;;;;;;8.35;85.62;101152.00;5063087;28;20040;-82
2023/05/09 03:48:38;;;;;;;11.90;4.28;;;;;;;8.35;86.01;101145.91;5065570;28;20534;-79
2023/05/09 03:51:04;;;;;;;5.82;4.03;;;;;;;8.35;86.08;101140.69;5065605;28;20036;-78
2023/05/09 03:53:31;;;;;;;8.05;5.03;;;;;;;8.34;86.20;101137.19;5066204;28;20041;-81
2023/05/09 03:55:59;;;;;;;3.80;3.50;;;;;;;8.35;86.30;101132.88;5069380;28;20032;-77
2023/05/09 03:58:26;;;;;;;4.10;3.53;;;;;;;8.36;86.27;101132.03;5056230;28;20127;-79
2023/05/09 04:00:52;;;;;;;5.00;3.40;;;;;;;8.35;86.34;101123.28;5053744;28;20041;-79
2023/05/09 04:03:19;;;;;;;5.45;3.90;;;;;;;8.36;86.07;101122.44;5072071;28;20041;-78
2023/05/09 04:05:45;;;;;;;4.82;4.38;;;;;;;8.37;85.96;101125.91;5068927;28;20047;-78
2023/05/09 04:08:12;;;;;;;7.35;4.18;;;;;;;8.36;85.99;101132.88;5064194;28;20033;-78
2023/05/09 04:10:49;;;;;;;6.28;3.92;;;;;;;8.35;86.19;101132.88;5084827;28;20090;-82
2023/05/09 04:13:16;;;;;;;5.65;4.07;;;;;;;8.35;85.69;101128.50;5050258;28;20724;-83
2023/05/09 04:15:43;;;;;;;5.00;4.20;;;;;;;8.35;86.35;101132.88;5074718;28;20036;-78
2023/05/09 04:18:09;;;;;;;4.78;3.80;;;;;;;8.37;86.35;101126.81;5065084;28;20040;-78
2023/05/09 04:20:36;;;;;;;4.15;3.75;;;;;;;8.44;86.01;101118.16;5064301;28;20692;-78
2023/05/09 04:23:02;;;;;;;4.10;3.25;;;;;;;8.46;85.84;101118.22;5065284;28;20036;-84
2023/05/09 04:25:29;;;;;;;4.22;3.80;;;;;;;8.51;85.42;101120.84;5048453;28;20042;-81
2023/05/09 04:27:56;;;;;;;9.52;5.40;;;;;;;8.54;85.45;101121.75;5066938;28;20044;-79
2023/05/09 04:30:25;;;;;;;4.38;3.97;;;;;;;8.59;85.72;101121.75;5066865;28;20049;-78
2023/05/09 04:32:54;;;;;;;5.63;5.00;;;;;;;8.63;85.69;101122.66;5063101;28;20502;-80
2023/05/09 04:35:21;;;;;;;9.02;5.03;;;;;;;8.66;85.87;101112.25;5047659;28;20057;-80
2023/05/09 04:37:48;;;;;;;11.90;4.70;;;;;;;8.69;85.61;101118.34;5064309;28;20067;-78
2023/05/09 04:40:14;;;;;;;9.43;5.10;;;;;;;8.73;85.28;101121.84;5067169;28;20044;-79
2023/05/09 04:42:41;;;;;;;8.13;5.00;;;;;;;8.75;85.45;101109.69;5069979;28;20712;-78
2023/05/09 04:45:11;;;;;;;7.03;4.30;;;;;;;8.81;85.66;101117.53;5069413;28;20056;-79
2023/05/09 04:47:40;;;;;;;5.85;4.18;;;;;;;8.87;85.22;101109.75;5064113;28;20068;-78
2023/05/09 04:50:07;;;;;;;4.80;4.30;;;;;;;8.92;85.01;101110.66;5086095;28;20040;-78
2023/05/09 04:52:34;;;;;;;5.75;4.57;;;;;;;8.98;84.90;101096.75;5068577;28;20052;-81
2023/05/09 04:55:01;;;;;;;9.38;4.53;;;;;;;9.05;84.14;101097.66;5063015;28;20265;-80
2023/05/09 04:57:30;;;;;;;11.32;4.75;;;;;;;9.06;84.30;101102.91;5068513;28;20094;-79
2023/05/09 04:59:58;;;;;;;5.70;4.40;;;;;;;9.09;83.75;101099.44;5066962;28;20127;-81
2023/05/09 05:02:24;;;;;;;7.50;5.68;;;;;;;9.13;83.87;101093.34;5059555;28;20131;-79
2023/05/09 05:04:51;;;;;;;7.63;5.18;;;;;;;9.17;83.95;101089.00;5053888;28;20148;-79
2023/05/09 05:07:27;;;;;;;8.10;4.80;;;;;;;9.23;83.50;101097.75;5044735;28;20113;-79
2023/05/09 05:09:57;;;;;;;5.45;4.68;;;;;;;9.26;83.66;101102.97;5078322;28;20493;-78
2023/05/09 05:12:24;;;;;;;5.88;4.38;;;;;;;9.30;83.30;101093.41;5060043;28;20059;-80
2023/05/09 05:14:58;;;;;;;9.63;6.03;;;;;;;9.36;83.53;101096.03;5059786;28;20044;-79
2023/05/09 05:17:24;;;;;;;6.28;5.18;;;;;;;9.41;83.11;101089.09;5068667;28;20036;-79
2023/05/09 05:19:51;;;;;;;8.85;5.47;;;;;;;9.48;82.74;101087.38;5066943;28;20634;-77
2023/05/09 05:22:17;;;;;;;7.47;5.35;;;;;;;9.52;82.09;101077.81;5076193;28;20052;-82
2023/05/09 05:24:44;;;;;;;7.00;4.38;;;;;;;9.57;82.35;101083.91;5057298;28;20052;-78
2023/05/09 05:27:10;;;;;;;5.53;4.80;;;;;;;9.63;81.76;101085.66;5074283;28;20066;-81
2023/05/09 05:29:37;;;;;;;14.70;5.32;;;;;;;9.66;81.94;101089.16;5059241;28;20059;-77
2023/05/09 05:32:03;;;;;;;4.65;4.25;;;;;;;9.71;81.62;101090.03;5075808;28;20036;-79
2023/05/09 05:34:30;;;;;;;5.80;4.60;;;;;;;9.80;81.17;101098.75;5061585;28;20105;-80
2023/05/09 05:36:57;;;;;;;5.90;4.53;;;;;;;9.84;81.12;101090.94;5058506;28;20048;-78
2023/05/09 05:39:23;;;;;;;6.93;4.38;;;;;;;9.92;80.93;101086.56;5074655;28;20044;-80
2023/05/09 05:41:50;;;;;;;5.32;4.82;;;;;;;10.03;80.60;101085.69;5083589;28;20119;-79
2023/05/09 05:44:17;;;;;;;6.85;5.50;;;;;;;10.15;80.22;101082.22;5070476;28;20049;-79
2023/05/09 05:46:43;;;;;;;6.38;4.85;;;;;;;10.23;79.55;101068.25;5069656;28;20048;-83
2023/05/09 05:49:10;;;;;;;5.22;4.25;;;;;;;10.35;79.17;101071.72;5075011;28;20037;-81
2023/05/09 05:51:37;;;;;;;5.93;4.35;;;;;;;10.44;78.62;101061.25;5058917;28;20063;-80
2023/05/09 05:54:03;;;;;;;5.88;4.05;;;;;;;10.55;78.31;101066.50;5061581;28;20048;-78
2023/05/09 05:56:31;;;;;;;4.95;4.30;;;;;;;10.64;78.00;101063.84;5057549;28;20037;-80
2023/05/09 05:58:57;;;;;;;4.75;4.07;;;;;;;10.72;77.48;101067.31;5061751;28;20063;-78
2023/05/09 06:01:24;;;;;;;5.35;4.85;;;;;;;10.80;77.12;101067.28;5050958;28;20098;-78
2023/05/09 06:03:53;;;;;;;6.63;5.45;;;;;;;10.89;76.37;101066.41;5078349;28;20036;-79
2023/05/09 06:06:21;;;;;;;7.30;4.40;;;;;;;10.99;75.79;101059.34;5059720;28;20124;-78
2023/05/09 06:08:49;;;;;;;5.38;4.85;;;;;;;11.08;75.53;101051.44;5053689;28;20386;-77
2023/05/09 06:11:16;;;;;;;9.25;5.10;;;;;;;11.20;74.35;101051.41;5079254;28;20055;-77
2023/05/09 06:13:43;;;;;;;6.13;4.38;;;;;;;11.30;74.46;101057.47;5073963;28;20558;-80
2023/05/09 06:16:12;;;;;;;4.90;4.50;;;;;;;11.41;73.61;101053.03;5071157;28;20040;-79
2023/05/09 06:18:39;;;;;;;10.10;4.32;;;;;;;11.45;73.07;101050.41;5074671;28;20056;-78
2023/05/09 06:21:06;;;;;;;5.32;3.92;;;;;;;11.55;72.42;101057.31;5057121;28;20441;-89
2023/05/09 06:23:35;;;;;;;7.60;4.50;;;;;;;11.69;72.03;101046.72;5073266;28;20760;-81
2023/05/09 06:26:02;;;;;;;5.95;4.05;;;;;;;11.83;70.88;101044.88;5076303;28;20043;-81
2023/05/09 06:28:29;;;;;;;4.63;4.13;;;;;;;11.90;70.54;101048.31;5071505;28;20033;-81
2023/05/09 06:30:56;;;;;;;4.13;3.83;;;;;;;11.97;70.01;101044.81;5071346;28;20041;-82
2023/05/09 06:33:22;;;;;;;9.50;4.50;;;;;;;12.12;70.04;101046.41;5063123;28;20052;-82
2023/05/09 06:35:49;;;;;;;4.72;3.85;;;;;;;12.23;69.50;101044.56;5069907;28;20037;-79
2023/05/09 06:38:15;;;;;;;4.95;4.38;;;;;;;12.34;68.53;101043.59;5070585;28;20090;-81
2023/05/09 06:40:42;;;;;;;5.47;4.25;;;;;;;12.40;69.22;101036.53;5052919;28;20040;-82
2023/05/09 06:43:08;;;;;;;3.95;3.63;;;;;;;12.54;68.89;101027.63;5108369;28;20032;-88
2023/05/09 06:45:35;;;;;;;7.82;4.18;;;;;;;12.61;67.88;101023.19;5103520;28;20045;-79
2023/05/09 06:48:01;;;;;;;5.35;4.20;;;;;;;12.69;68.00;101022.19;5080100;28;20039;-79
2023/05/09 06:50:28;;;;;;;4.20;3.53;;;;;;;12.79;67.55;101015.09;5060498;28;20095;-82
2023/05/09 06:52:54;;;;;;;8.90;5.13;;;;;;;12.91;66.42;101012.28;5071808;28;20671;-82
2023/05/09 06:55:20;;;;;;;4.55;3.72;;;;;;;13.02;65.45;101008.66;5069246;28;20441;-82
2023/05/09 06:57:47;;;;;;;6.10;4.43;;;;;;;13.15;65.18;101004.09;5071160;28;20048;-79
2023/05/09 07:00:15;;;;;;;5.60;4.07;;;;;;;13.39;64.47;101000.28;5074996;28;20090;-79
2023/05/09 07:02:41;;;;;;;5.13;4.28;;;;;;;13.82;63.12;100983.81;5058567;28;20044;-81
2023/05/09 07:05:09;;;;;;;4.45;4.05;;;;;;;14.29;61.57;100983.84;5074007;28;20067;-78
2023/05/09 07:07:36;;;;;;;4.38;3.97;;;;;;;14.78;60.07;100979.38;5070325;28;20040;-79
2023/05/09 07:10:03;;;;;;;4.43;4.03;;;;;;;15.31;58.27;100979.06;5068963;28;20547;-80
2023/05/09 07:12:33;;;;;;;4.55;3.47;;;;;;;15.77;57.48;100973.59;5048826;28;20379;-79
2023/05/09 07:15:00;;;;;;;4.05;3.70;;;;;;;16.18;55.60;100974.31;5084262;28;20037;-79
2023/05/09 07:17:28;;;;;;;4.65;3.55;;;;;;;16.60;53.81;100973.16;5066863;28;20111;-78
2023/05/09 07:19:55;;;;;;;4.70;3.60;;;;;;;16.62;52.37;100969.56;5052123;28;20123;-80
2023/05/09 07:22:21;;;;;;;3.38;3.08;;;;;;;16.94;52.36;100964.25;5067986;28;20036;-81
2023/05/09 07:24:49;;;;;;;4.03;3.60;;;;;;;17.19;50.99;100961.69;5063301;28;20047;-79
2023/05/09 07:27:16;;;;;;;9.18;4.00;;;;;;;17.34;50.45;100958.56;5053145;28;20055;-83
2023/05/09 07:29:42;;;;;;;3.03;2.83;;;;;;;17.67;50.12;100954.84;5071662;28;20549;-81
2023/05/09 07:32:09;;;;;;;3.95;3.42;;;;;;;18.30;48.56;100959.75;5087549;28;20405;-79
2023/05/09 07:34:36;;;;;;;3.40;3.20;;;;;;;18.45;47.38;100955.69;5055472;28;20432;-79
2023/05/09 07:37:03;;;;;;;3.22;3.03;;;;;;;18.65;45.96;100954.94;5069129;28;20507;-78
2023/05/09 07:39:29;;;;;;;2.83;2.60;;;;;;;18.65;46.69;100946.97;5042456;28;20041;-80
2023/05/09 07:41:56;;;;;;;3.30;3.10;;;;;;;18.90;45.96;100944.28;5071491;28;20051;-80
2023/05/09 07:44:22;;;;;;;3.65;3.35;;;;;;;19.03;45.67;100946.47;5071588;28;20040;-78
2023/05/09 07:46:49;;;;;;;4.07;3.70;;;;;;;19.28;45.81;100941.00;5067253;28;20033;-79
2023/05/09 07:49:15;;;;;;;5.50;2.90;;;;;;;19.48;44.49;100943.72;5069646;28;20075;-79
2023/05/09 07:51:41;;;;;;;15.52;3.90;;;;;;;19.62;44.17;100939.59;5052531;28;20094;-78
2023/05/09 07:54:11;;;;;;;3.83;3.42;;;;;;;20.00;44.46;100927.38;5087283;28;20033;-78
2023/05/09 07:56:37;;;;;;;3.05;2.67;;;;;;;20.36;43.58;100924.94;5073694;28;20095;-80
2023/05/09 07:59:04;;;;;;;3.90;3.05;;;;;;;20.83;42.59;100919.22;5090423;28;20045;-79
2023/05/09 08:01:31;;;;;;;4.88;2.55;;;;;;;21.31;42.17;100914.22;5057308;28;20054;-81
2023/05/09 08:03:57;;;;;;;3.17;2.88;;;;;;;21.49;40.14;100917.78;5088640;28;20455;-79
2023/05/09 08:06:25;;;;;;;5.00;3.03;;;;;;;21.59;40.57;100908.41;5087803;28;20044;-80
2023/05/09 08:08:52;;;;;;;4.13;3.70;;;;;;;21.84;39.97;100906.25;5062485;28;20041;-80
2023/05/09 08:11:18;;;;;;;3.58;2.90;;;;;;;22.44;39.80;100909.28;5067943;28;20067;-81
2023/05/09 08:13:46;;;;;;;3.65;3.08;;;;;;;23.05;38.10;100914.81;5066718;28;20041;-81
2023/05/09 08:16:13;;;;;;;3.13;2.72;;;;;;;23.05;37.85;100909.47;5055548;28;20048;-87
2023/05/09 08:18:40;;;;;;;4.93;3.42;;;;;;;23.22;37.26;100897.84;5068120;28;20044;-81
2023/05/09 08:21:06;;;;;;;3.50;3.22;;;;;;;23.19;37.75;100895.34;5071015;28;20074;-79
2023/05/09 08:23:33;;;;;;;3.45;3.13;;;;;;;23.58;37.38;100890.41;5068166;28;20045;-79
2023/05/09 08:26:00;;;;;;;3.15;2.95;;;;;;;23.72;37.02;100890.44;5071403;28;20114;-78
2023/05/09 08:28:27;;;;;;;3.10;2.75;;;;;;;24.39;36.03;100873.88;5070290;28;20060;-81
2023/05/09 08:30:55;;;;;;;4.40;3.03;;;;;;;24.31;35.33;100878.00;5072284;28;20045;-79
2023/05/09 08:33:22;;;;;;;5.07;3.13;;;;;;;23.77;36.13;100868.78;5088633;28;20068;-80
2023/05/09 08:35:55;;;;;;;4.78;3.03;;;;;;;23.94;35.85;100862.44;5072159;28;20037;-78
2023/05/09 08:38:24;;;;;;;;;;;;;;;24.52;34.93;100865.06;5071647;28;20051;-79
2023/05/09 08:40:51;;;;;;;3.38;3.08;;;;;;;25.02;35.43;100858.25;5070582;28;19927;-79
2023/05/09 08:43:23;;;;;;;3.45;2.70;;;;;;;25.10;34.53;100855.03;5087156;28;20037;-81
2023/05/09 08:46:07;;;;;;;2.90;2.70;;;;;;;25.66;33.50;100849.47;5071295;28;20051;-81
2023/05/09 08:48:36;;;;;;;3.28;2.97;;;;;;;25.55;34.36;100847.56;5057267;28;20132;-80
2023/05/09 08:51:06;;;;;;;3.17;2.78;;;;;;;26.21;33.55;100842.06;5072247;28;20051;-79
2023/05/09 08:53:34;;;;;;;3.20;2.92;;;;;;;26.46;32.96;100853.69;5067571;28;20037;-77
2023/05/09 08:56:01;;;;;;;2.80;2.60;;;;;;;26.47;33.16;100843.81;5094441;28;20047;-79
2023/05/09 08:58:28;;;;;;;4.20;3.30;;;;;;;26.22;33.31;100843.78;5057011;28;20459;-81
2023/05/09 09:00:55;;;;;;;2.90;2.70;;;;;;;26.37;32.72;100835.56;5087630;28;20044;-80
2023/05/09 09:03:24;;;;;;;3.53;2.53;;;;;;;27.03;32.70;100824.47;5082914;28;20068;-80
2023/05/09 09:05:51;;;;;;;4.55;2.97;;;;;;;27.24;31.45;100830.03;5075688;28;20040;-79
2023/05/09 09:08:19;;;;;;;2.90;2.70;;;;;;;27.86;30.52;100825.28;5065448;28;20042;-80
2023/05/09 09:10:47;;;;;;;4.50;2.70;;;;;;;27.65;29.81;100822.44;5053231;28;20105;-81
2023/05/09 09:13:15;;;;;;;5.30;2.67;;;;;;;27.98;29.42;100818.06;5047930;28;20132;-79
2023/05/09 09:15:45;;;;;;;5.05;2.47;;;;;;;27.82;29.76;100821.13;5072265;28;20056;-80
2023/05/09 09:18:18;;;;;;;3.10;2.90;;;;;;;27.96;29.43;100820.03;5072959;28;20124;-79
2023/05/09 09:20:57;;;;;;;2.90;2.78;;;;;;;28.08;29.31;100820.91;5045089;28;20132;-82
2023/05/09 09:23:26;;;;;;;3.15;2.95;;;;;;;28.11;28.94;100815.25;5054466;28;20490;-80
2023/05/09 09:26:00;;;;;;;3.47;2.47;;;;;;;27.90;29.45;100806.09;5068376;28;20044;-78
2023/05/09 09:28:27;;;;;;;4.93;3.03;;;;;;;28.76;29.37;100816.25;5070632;28;20072;-80
2023/05/09 09:30:53;;;;;;;2.80;2.60;;;;;;;28.90;28.70;100801.59;5071006;28;20040;-80
2023/05/09 09:33:21;;;;;;;3.35;3.05;;;;;;;28.36;28.70;100804.22;5068161;28;20131;-84
2023/05/09 09:35:55;;;;;;;3.25;2.80;;;;;;;27.92;29.55;100797.88;5065099;28;20048;-80
2023/05/09 09:38:23;;;;;;;3.72;2.55;;;;;;;28.50;29.07;100789.63;5086095;28;20044;-81
2023/05/09 09:40:57;;;;;;;2.80;2.58;;;;;;;28.24;28.98;100799.84;5068684;28;20041;-80
2023/05/09 09:43:29;;;;;;;4.38;3.00;;;;;;;28.06;29.79;100788.75;5069129;28;20055;-81
2023/05/09 09:45:56;;;;;;;3.58;3.20;;;;;;;28.83;28.83;100792.34;5061268;28;20040;-83
2023/05/09 09:48:28;;;;;;;3.17;2.83;;;;;;;29.16;28.23;100785.91;5062861;28;20415;-80
2023/05/09 09:50:56;;;;;;;2.72;2.63;;;;;;;29.15;28.60;100773.44;5053272;28;20548;-79
2023/05/09 09:53:23;;;;;;;2.60;2.40;;;;;;;29.11;28.23;100773.81;5061162;28;20106;-79
2023/05/09 09:55:52;;;;;;;3.90;3.03;;;;;;;28.75;28.97;100774.13;5087199;28;20033;-80
2023/05/09 09:58:20;;;;;;;2.90;2.70;;;;;;;29.91;28.08;100764.22;5084414;28;20071;-81
2023/05/09 10:00:49;;;;;;;3.00;2.70;;;;;;;30.92;26.54;100768.63;5053621;28;20087;-78
2023/05/09 10:03:16;;;;;;;4.03;2.83;;;;;;;30.60;26.27;100759.81;5070718;28;20044;-78
2023/05/09 10:05:43;;;;;;;2.80;2.60;;;;;;;30.59;26.53;100755.41;5042694;28;20044;-81
2023/05/09 10:08:09;;;;;;;4.00;2.83;;;;;;;29.93;26.92;100745.19;5062864;28;20106;-79
2023/05/09 10:10:37;;;;;;;3.33;3.00;;;;;;;30.56;26.70;100744.00;5067144;28;20139;-84
2023/05/09 10:13:08;;;;;;;3.10;2.90;;;;;;;30.57;26.11;100748.44;5065503;28;20041;-78
2023/05/09 10:15:36;;;;;;;3.60;2.92;;;;;;;30.25;26.98;100731.47;5067532;28;20044;-84
2023/05/09 10:18:06;;;;;;;4.22;2.83;;;;;;;30.78;26.28;100732.06;5087192;28;20197;-78
2023/05/09 10:20:35;;;;;;;3.45;2.95;;;;;;;30.94;25.93;100742.31;5065397;28;20644;-80
2023/05/09 10:23:03;;;;;;;3.03;2.83;;;;;;;31.43;25.95;100717.84;5087095;28;20040;-78
2023/05/09 10:25:40;;;;;;;3.15;2.88;;;;;;;31.24;25.62;100718.75;5069317;28;20119;-84
2023/05/09 10:28:24;;;;;;;3.67;3.38;;;;;;;31.52;25.02;100711.53;5081938;28;20086;-82
2023/05/09 10:31:05;;;;;;;3.55;2.90;;;;;;;32.24;24.91;100700.06;5051580;28;20083;-80
2023/05/09 10:33:43;;;;;;;4.23;2.47;;;;;;;32.26;24.28;100709.72;5052617;28;20045;-81
2023/05/09 10:36:10;;;;;;;4.95;3.42;;;;;;;30.96;25.35;100716.84;5069897;28;20298;-81
2023/05/09 10:38:37;;;;;;;3.25;2.95;;;;;;;29.77;26.81;100710.59;5085254;28;20490;-79
2023/05/09 10:41:04;;;;;;;3.80;3.30;;;;;;;29.92;26.83;100706.56;5066434;28;20036;-78
2023/05/09 10:43:33;;;;;;;2.67;2.47;;;;;;;30.29;26.35;100696.94;5067468;28;20577;-82
2023/05/09 10:46:01;;;;;;;2.40;2.20;;;;;;;31.20;25.79;100684.91;5068946;28;20115;-80
2023/05/09 10:48:28;;;;;;;4.20;2.95;;;;;;;31.46;25.33;100682.38;5060639;28;20129;-84
2023/05/09 10:50:56;;;;;;;5.00;2.95;;;;;;;31.06;25.91;100673.56;5052596;28;20036;-80
2023/05/09 10:53:23;;;;;;;2.80;2.60;;;;;;;31.34;25.20;100676.31;5066057;28;20488;-80
2023/05/09 10:55:59;;;;;;;3.05;2.88;;;;;;;31.29;24.96;100671.34;5085111;28;20040;-80
2023/05/09 10:58:36;;;;;;;3.45;3.03;;;;;;;30.67;25.69;100676.34;5065777;28;20049;-80
2023/05/09 11:01:04;;;;;;;2.83;2.63;;;;;;;30.96;25.42;100670.00;5065279;28;20060;-80
2023/05/09 11:03:55;;;;;;;3.22;2.70;;;;;;;29.46;27.29;100664.78;5068508;28;20067;-83
2023/05/09 11:06:42;;;;;;;3.22;2.92;;;;;;;29.88;26.68;100664.63;5075928;28;20051;-82
2023/05/09 11:09:41;;;;;;;4.70;3.38;;;;;;;29.99;26.73;100655.56;5070124;28;20102;-78
2023/05/09 11:12:12;;;;;;;2.60;2.50;;;;;;;30.57;25.38;100649.31;5035948;28;20506;-80
2023/05/09 11:14:45;;;;;;;2.30;2.20;;;;;;;30.60;25.52;100635.53;5072682;28;20915;-78
2023/05/09 11:17:23;;;;;;;3.28;2.88;;;;;;;29.69;26.59;100636.59;5080975;28;20067;-85
2023/05/09 11:19:49;;;;;;;6.35;2.58;;;;;;;29.37;27.53;100632.25;5086466;28;20056;-80
2023/05/09 11:22:19;;;;;;;3.28;2.55;;;;;;;28.89;28.04;100640.97;5077414;28;20039;-82
2023/05/09 11:24:46;;;;;;;2.90;2.80;;;;;;;27.71;29.19;100621.09;5058905;28;20123;-80
2023/05/09 11:27:25;;;;;;;3.65;3.35;;;;;;;27.29;29.76;100626.28;5068546;28;20033;-80
2023/05/09 11:29:55;;;;;;;3.95;2.78;;;;;;;26.74;30.36;100615.41;5068736;28;20745;-81
2023/05/09 11:32:28;;;;;;;3.25;3.05;;;;;;;26.36;31.22;100611.97;5057294;28;20355;-78
2023/05/09 11:35:18;;;;;;;3.38;3.08;;;;;;;26.46;31.52;100613.97;5059258;28;20052;-82
2023/05/09 11:38:05;;;;;;;2.80;2.67;;;;;;;26.94;30.97;100610.28;5047662;28;20082;-81